createdAt,value
2019-04-21T00:01:14.563Z,61.73
2019-04-21T00:03:52.136Z,61.08
2019-04-21T00:06:43.482Z,61.04
2019-04-21T00:09:22.570Z,60.91
2019-04-21T00:11:53.985Z,60.93
2019-04-21T00:14:11.351Z,60.64
2019-04-21T00:16:41.558Z,60.38
2019-04-21T00:19:28.083Z,60.51
2019-04-21T00:22:08.591Z,59.95
2019-04-21T00:24:44.491Z,60.30
2019-04-21T00:27:20.242Z,60.61
2019-04-21T00:29:52.076Z,60.07
2019-04-21T00:32:24.562Z,60.25
2019-04-21T00:34:50.372Z,60.37
2019-04-21T00:37:24.075Z,60.72
2019-04-21T00:40:09.424Z,60.92
2019-04-21T00:42:41.577Z,60.16
2019-04-21T00:45:10.678Z,60.13
2019-04-21T00:47:38.783Z,59.94
2019-04-21T00:50:20.009Z,60.88
2019-04-21T00:53:13.132Z,59.83
2019-04-21T00:56:04.578Z,60.27
2019-04-21T00:58:27.000Z,60.55
2019-04-21T01:00:52.669Z,60.73
2019-04-21T01:03:26.097Z,61.34
2019-04-21T01:05:58.991Z,61.03
2019-04-21T01:08:31.597Z,60.87
2019-04-21T01:10:52.821Z,61.89
2019-04-21T01:13:42.608Z,62.79
2019-04-21T01:16:14.296Z,63.32
2019-04-21T01:18:42.623Z,61.97
2019-04-21T01:20:54.087Z,61.66
2019-04-21T01:23:25.631Z,61.69
2019-04-21T01:26:13.347Z,62.56
2019-04-21T01:28:49.484Z,64.55
2019-04-21T01:31:17.422Z,63.21
2019-04-21T01:33:57.714Z,61.65
2019-04-21T01:36:28.487Z,62.24
2019-04-21T01:39:05.305Z,62.69
2019-04-21T01:41:42.857Z,61.96
2019-04-21T01:44:04.863Z,61.43
2019-04-21T01:46:33.681Z,60.32
2019-04-21T01:49:07.936Z,60.82
2019-04-21T01:52:02.795Z,61.53
2019-04-21T01:54:43.194Z,61.65
2019-04-21T01:57:15.692Z,61.63
2019-04-21T01:59:43.736Z,59.98
2019-04-21T02:02:24.206Z,60.85
2019-04-21T02:04:55.778Z,61.98
2019-04-21T02:07:27.052Z,61.11
2019-04-21T02:10:05.850Z,61.98
2019-04-21T02:12:33.375Z,62.16
2019-04-21T02:15:11.117Z,62.47
2019-04-21T02:17:43.714Z,63.05
2019-04-21T02:20:06.706Z,63.46
2019-04-21T02:25:22.352Z,62.15
2019-04-21T02:27:57.735Z,62.79
2019-04-21T02:30:43.092Z,63.58
2019-04-21T02:33:08.768Z,62.60
2019-04-21T02:36:02.721Z,62.61
2019-04-21T02:38:11.785Z,62.47
2019-04-21T02:45:56.195Z,60.88
2019-04-21T02:48:37.002Z,61.04
2019-04-21T02:50:52.948Z,62.61
2019-04-21T02:53:48.166Z,63.71
2019-04-21T02:56:14.534Z,64.47
2019-04-21T02:58:48.006Z,63.55
2019-04-21T03:04:30.440Z,65.33
2019-04-21T03:07:09.465Z,65.26
2019-04-21T03:09:43.104Z,65.98
2019-04-21T03:12:11.221Z,65.54
2019-04-21T03:14:56.447Z,65.18
2019-04-21T03:17:22.376Z,63.94
2019-04-21T03:19:55.478Z,63.96
2019-04-21T03:27:40.115Z,64.75
2019-04-21T03:33:08.229Z,63.06
2019-04-21T03:35:44.010Z,65.58
2019-04-21T03:37:39.853Z,63.32
2019-04-21T03:40:15.177Z,61.81
2019-04-21T03:42:47.774Z,61.58
2019-04-21T03:45:32.623Z,61.08
2019-04-21T03:47:53.604Z,61.55
2019-04-21T03:50:27.394Z,60.36
2019-04-21T04:01:00.622Z,59.56
2019-04-21T04:09:14.438Z,59.60
2019-04-21T04:11:38.142Z,60.32
2019-04-21T04:14:20.224Z,59.54
2019-04-21T04:16:47.451Z,59.33
2019-04-21T04:19:05.483Z,59.73
2019-04-21T04:21:49.329Z,60.63
2019-04-21T04:24:34.371Z,62.00
2019-04-21T04:26:45.477Z,61.37
2019-04-21T04:29:20.396Z,61.06
2019-04-21T04:37:07.424Z,58.79
2019-04-21T04:39:50.161Z,60.27
2019-04-21T04:42:21.763Z,61.30
2019-04-21T04:47:36.331Z,60.94
2019-04-21T04:55:01.249Z,61.32
2019-04-21T05:05:19.524Z,61.25
2019-04-21T05:07:50.493Z,60.17
2019-04-21T05:10:31.096Z,57.00
2019-04-21T05:12:51.118Z,56.48
2019-04-21T05:15:24.888Z,54.91
2019-04-21T05:17:57.898Z,55.56
2019-04-21T05:20:33.695Z,53.50
2019-04-21T05:22:58.310Z,52.72
2019-04-21T05:25:27.784Z,52.76
2019-04-21T05:28:00.053Z,51.01
2019-04-21T05:30:50.842Z,52.50
2019-04-21T05:33:32.280Z,53.73
2019-04-21T05:36:07.655Z,52.49
2019-04-21T05:38:50.269Z,53.14
2019-04-21T05:41:10.080Z,54.91
2019-04-21T05:43:58.860Z,53.75
2019-04-21T05:46:32.269Z,53.53
2019-04-21T05:49:21.976Z,54.69
2019-04-21T05:51:55.976Z,54.59
2019-04-21T05:57:05.319Z,54.08
2019-04-21T05:59:43.579Z,52.87
2019-04-21T06:02:23.232Z,49.58
2019-04-21T06:05:05.662Z,48.68
2019-04-21T06:07:23.002Z,49.05
2019-04-21T06:09:59.587Z,48.20
2019-04-21T06:12:37.788Z,50.77
2019-04-21T06:15:08.216Z,51.37
2019-04-21T06:17:46.015Z,50.23
2019-04-21T06:20:15.458Z,48.05
2019-04-21T06:22:46.554Z,47.17
2019-04-21T06:25:41.619Z,46.02
2019-04-21T06:27:50.766Z,43.85
2019-04-21T06:30:27.625Z,41.83
2019-04-21T06:32:56.712Z,41.54
2019-04-21T06:36:20.043Z,41.67
2019-04-21T06:38:56.944Z,41.01
2019-04-21T06:41:21.333Z,40.26
2019-04-21T06:43:56.591Z,39.66
2019-04-21T06:46:26.340Z,39.78
2019-04-21T06:48:59.944Z,39.47
2019-04-21T06:54:05.351Z,40.11
2019-04-21T06:56:41.378Z,40.00
2019-04-21T06:59:05.953Z,40.27
2019-04-21T07:01:48.789Z,41.49
2019-04-21T07:06:50.040Z,43.45
2019-04-21T07:11:54.944Z,42.01
2019-04-21T07:14:40.610Z,42.59
2019-04-21T07:17:05.097Z,41.86
2019-04-21T07:19:42.694Z,42.36
2019-04-21T07:22:11.941Z,42.65
2019-04-21T07:24:44.503Z,41.86
2019-04-21T07:27:16.270Z,42.86
2019-04-21T07:29:50.566Z,42.47
2019-04-21T07:32:15.268Z,44.29
2019-04-21T07:35:00.666Z,42.95
2019-04-21T07:37:25.602Z,45.62
2019-04-21T07:39:57.337Z,46.71
2019-04-21T07:42:29.551Z,47.38
2019-04-21T07:45:00.705Z,47.55
2019-04-21T07:47:55.524Z,46.46
2019-04-21T07:50:38.800Z,46.09
2019-04-21T07:53:16.331Z,45.39
2019-04-21T07:58:17.818Z,44.80
2019-04-21T08:00:57.707Z,44.90
2019-04-21T08:03:30.347Z,44.27
2019-04-21T08:05:58.848Z,44.63
2019-04-21T08:08:26.860Z,44.62
2019-04-21T08:10:56.738Z,44.05
2019-04-21T08:13:41.800Z,43.17
2019-04-21T08:16:11.041Z,44.08
2019-04-21T08:18:39.468Z,42.22
2019-04-21T08:21:15.115Z,42.77
2019-04-21T08:23:46.768Z,43.18
2019-04-21T08:26:15.577Z,43.31
2019-04-21T08:28:53.788Z,43.38
2019-04-21T08:31:32.465Z,43.28
2019-04-21T08:34:04.173Z,42.86
2019-04-21T08:36:44.725Z,43.07
2019-04-21T08:39:07.044Z,44.15
2019-04-21T08:41:39.461Z,45.59
2019-04-21T08:44:10.552Z,46.74
2019-04-21T08:46:47.189Z,46.68
2019-04-21T08:49:22.285Z,47.56
2019-04-21T08:52:08.257Z,45.96
2019-04-21T08:54:26.512Z,46.34
2019-04-21T08:57:21.539Z,47.08
2019-04-21T09:00:01.613Z,47.01
2019-04-21T09:02:35.129Z,43.50
2019-04-21T09:05:04.585Z,43.57
2019-04-21T09:07:39.110Z,42.29
2019-04-21T09:10:09.739Z,42.59
2019-04-21T09:12:42.820Z,43.02
2019-04-21T09:15:17.352Z,39.60
2019-04-21T09:17:43.767Z,40.08
2019-04-21T09:20:35.081Z,40.87
2019-04-21T09:23:00.478Z,39.91
2019-04-21T09:25:38.730Z,40.02
2019-04-21T09:28:02.272Z,40.43
2019-04-21T09:30:19.937Z,43.08
2019-04-21T09:32:55.085Z,43.35
2019-04-21T09:35:24.702Z,42.38
2019-04-21T09:38:11.488Z,44.49
2019-04-21T09:40:39.463Z,46.07
2019-04-21T09:43:13.088Z,46.57
2019-04-21T09:45:43.174Z,50.10
2019-04-21T09:48:18.978Z,49.65
2019-04-21T09:50:48.505Z,50.29
2019-04-21T09:53:29.426Z,48.09
2019-04-21T09:55:59.353Z,49.61
2019-04-21T09:58:34.725Z,50.61
2019-04-21T10:01:10.813Z,48.21
2019-04-21T10:03:42.782Z,47.82
2019-04-21T10:06:07.246Z,47.52
2019-04-21T10:08:38.647Z,47.85
2019-04-21T10:11:10.394Z,46.96
2019-04-21T10:13:42.008Z,45.78
2019-04-21T10:16:15.296Z,45.82
2019-04-21T10:18:48.084Z,47.96
2019-04-21T10:21:19.814Z,47.91
2019-04-21T10:23:52.129Z,48.76
2019-04-21T10:26:24.363Z,48.63
2019-04-21T10:28:58.589Z,48.89
2019-04-21T10:31:28.917Z,50.90
2019-04-21T10:34:01.040Z,49.86
2019-04-21T10:36:33.219Z,49.43
2019-04-21T10:39:06.020Z,49.87
2019-04-21T10:41:37.331Z,50.11
2019-04-21T10:44:09.316Z,50.95
2019-04-21T10:46:41.002Z,50.82
2019-04-21T10:49:12.753Z,51.15
2019-04-21T10:51:43.898Z,50.83
2019-04-21T10:54:15.852Z,49.79
2019-04-21T10:56:48.757Z,50.54
2019-04-21T10:59:20.497Z,50.42
2019-04-21T11:01:52.737Z,49.77
2019-04-21T11:04:33.709Z,49.20
2019-04-21T11:07:09.602Z,49.66
2019-04-21T11:09:38.138Z,49.81
2019-04-21T11:12:10.216Z,49.68
2019-04-21T11:14:41.504Z,48.53
2019-04-21T11:17:14.261Z,48.27
2019-04-21T11:19:46.535Z,48.76
2019-04-21T11:22:18.830Z,47.78
2019-04-21T11:24:51.129Z,48.52
2019-04-21T11:27:22.621Z,49.43
2019-04-21T11:29:55.749Z,48.33
2019-04-21T11:32:27.603Z,47.76
2019-04-21T11:35:01.209Z,46.93
2019-04-21T11:37:34.705Z,46.98
2019-04-21T11:40:10.787Z,46.03
2019-04-21T11:42:41.980Z,45.67
2019-04-21T11:45:16.588Z,44.15
2019-04-21T11:47:52.385Z,44.12
2019-04-21T11:50:23.717Z,41.90
2019-04-21T11:52:55.267Z,41.25
2019-04-21T11:55:33.412Z,40.56
2019-04-21T11:58:00.304Z,39.15
2019-04-21T12:00:31.676Z,37.59
2019-04-21T12:03:03.760Z,37.88
2019-04-21T12:05:39.407Z,37.54
2019-04-21T12:08:23.138Z,38.75
2019-04-21T12:10:49.257Z,38.89
2019-04-21T12:13:20.394Z,38.51
2019-04-21T12:15:52.819Z,37.00
2019-04-21T12:18:28.561Z,37.38
2019-04-21T12:21:01.668Z,36.29
2019-04-21T12:23:34.321Z,36.26
2019-04-21T12:26:07.382Z,35.64
2019-04-21T12:28:40.158Z,36.79
2019-04-21T12:31:18.976Z,35.91
2019-04-21T12:34:00.284Z,35.27
2019-04-21T12:36:31.813Z,35.83
2019-04-21T12:39:05.563Z,35.44
2019-04-21T12:41:38.430Z,37.32
2019-04-21T12:44:10.811Z,37.34
2019-04-21T12:46:43.505Z,37.64
2019-04-21T12:49:15.933Z,38.30
2019-04-21T12:51:48.196Z,38.38
2019-04-21T12:54:19.751Z,38.35
2019-04-21T12:56:51.673Z,39.56
2019-04-21T12:59:22.956Z,38.10
2019-04-21T13:01:54.902Z,36.14
2019-04-21T13:04:27.806Z,36.56
2019-04-21T13:07:01.840Z,37.44
2019-04-21T13:09:34.253Z,37.17
2019-04-21T13:12:06.938Z,38.07
2019-04-21T13:14:39.890Z,38.92
2019-04-21T13:17:11.304Z,41.35
2019-04-21T13:19:43.239Z,40.66
2019-04-21T13:22:14.409Z,43.35
2019-04-21T13:24:45.959Z,44.39
2019-04-21T13:27:17.782Z,45.14
2019-04-21T13:29:50.381Z,44.96
2019-04-21T13:32:24.912Z,45.32
2019-04-21T13:34:57.054Z,45.59
2019-04-21T13:37:29.742Z,47.33
2019-04-21T13:40:24.863Z,45.93
2019-04-21T13:42:47.755Z,41.65
2019-04-21T13:45:14.116Z,41.86
2019-04-21T13:47:48.513Z,43.13
2019-04-21T13:50:21.396Z,43.42
2019-04-21T13:52:54.479Z,43.62
2019-04-21T13:55:25.897Z,45.45
2019-04-21T13:57:58.870Z,46.29
2019-04-21T14:00:31.673Z,45.28
2019-04-21T14:03:04.642Z,46.83
2019-04-21T14:05:36.250Z,48.70
2019-04-21T14:08:11.302Z,48.90
2019-04-21T14:10:43.930Z,48.49
2019-04-21T14:13:16.457Z,46.77
2019-04-21T14:15:49.718Z,44.40
2019-04-21T14:18:20.725Z,42.60
2019-04-21T14:20:53.368Z,42.34
2019-04-21T14:23:32.534Z,42.28
2019-04-21T14:25:57.530Z,41.06
2019-04-21T14:28:28.410Z,39.13
2019-04-21T14:31:02.271Z,39.39
2019-04-21T14:33:34.168Z,37.03
2019-04-21T14:36:05.698Z,35.37
2019-04-21T14:38:38.474Z,36.70
2019-04-21T14:41:10.361Z,36.66
2019-04-21T14:43:42.199Z,35.82
2019-04-21T14:46:19.337Z,33.90
2019-04-21T14:49:09.034Z,34.85
2019-04-21T14:51:47.549Z,33.77
2019-04-21T14:54:29.267Z,33.27
2019-04-21T14:57:01.040Z,32.67
2019-04-21T14:59:33.216Z,32.21
2019-04-21T15:02:05.632Z,34.13
2019-04-21T15:04:37.936Z,34.98
2019-04-21T15:07:10.310Z,36.27
2019-04-21T15:09:43.253Z,37.38
2019-04-21T15:12:16.202Z,36.88
2019-04-21T15:14:49.729Z,38.48
2019-04-21T15:17:23.027Z,39.58
2019-04-21T15:20:04.031Z,39.30
2019-04-21T15:22:30.784Z,38.70
2019-04-21T15:25:02.823Z,37.04
2019-04-21T15:27:34.962Z,35.32
2019-04-21T15:30:09.125Z,35.22
2019-04-21T15:32:42.301Z,36.31
2019-04-21T15:35:15.306Z,38.96
2019-04-21T15:37:46.967Z,40.48
2019-04-21T15:40:29.983Z,41.26
2019-04-21T15:42:54.656Z,41.42
2019-04-21T15:45:26.648Z,42.83
2019-04-21T15:47:58.176Z,43.44
2019-04-21T15:50:30.172Z,43.83
2019-04-21T15:53:05.601Z,44.37
2019-04-21T15:55:46.545Z,44.98
2019-04-21T15:58:20.623Z,45.19
2019-04-21T16:00:54.431Z,43.98
2019-04-21T16:03:26.814Z,43.54
2019-04-21T16:05:57.532Z,44.15
2019-04-21T16:08:28.995Z,45.23
2019-04-21T16:11:04.533Z,45.60
2019-04-21T16:13:34.929Z,46.68
2019-04-21T16:16:06.447Z,47.38
2019-04-21T16:18:38.444Z,48.83
2019-04-21T16:21:11.718Z,49.98
2019-04-21T16:23:44.492Z,50.94
2019-04-21T16:26:17.055Z,51.65
2019-04-21T16:28:51.249Z,52.45
2019-04-21T16:31:22.662Z,53.24
2019-04-21T16:33:54.733Z,53.56
2019-04-21T16:36:27.449Z,54.14
2019-04-21T16:38:59.673Z,54.16
2019-04-21T16:41:32.106Z,54.44
2019-04-21T16:44:05.099Z,54.90
2019-04-21T16:46:37.647Z,54.86
2019-04-21T16:49:09.661Z,55.41
2019-04-21T16:51:42.286Z,55.20
2019-04-21T16:54:15.698Z,55.31
2019-04-21T16:56:50.058Z,55.65
2019-04-21T16:59:24.294Z,55.79
2019-04-21T17:01:56.601Z,56.04
2019-04-21T17:04:28.724Z,56.19
2019-04-21T17:07:03.440Z,56.61
2019-04-21T17:09:34.995Z,56.44
2019-04-21T17:12:11.461Z,56.58
2019-04-21T17:14:53.220Z,56.97
2019-04-21T17:17:38.530Z,56.70
2019-04-21T17:19:50.278Z,57.18
2019-04-21T17:22:21.699Z,58.46
2019-04-21T17:24:55.761Z,58.80
2019-04-21T17:27:27.257Z,57.76
2019-04-21T17:29:59.065Z,58.50
2019-04-21T17:32:35.641Z,59.40
2019-04-21T17:35:04.064Z,63.23
2019-04-21T17:37:36.266Z,65.94
2019-04-21T17:40:08.996Z,66.62
2019-04-21T17:42:46.543Z,67.71
2019-04-21T17:45:15.340Z,71.51
2019-04-21T17:47:59.059Z,76.04
2019-04-21T17:50:35.903Z,86.99
2019-04-21T18:03:45.495Z,88.75
2019-04-21T18:06:05.311Z,88.75
2019-04-21T18:09:00.944Z,100.00
2019-04-21T18:11:38.387Z,91.85
2019-04-21T18:13:47.266Z,92.34
2019-04-21T18:16:29.079Z,92.48
2019-04-21T18:18:57.020Z,92.50
2019-04-21T18:21:54.816Z,92.58
2019-04-21T18:24:38.090Z,92.71
2019-04-21T18:27:08.967Z,92.68
2019-04-21T18:29:44.321Z,92.60
2019-04-21T18:32:26.185Z,92.74
2019-04-21T18:35:11.580Z,92.74
2019-04-21T18:38:07.734Z,92.44
2019-04-21T18:40:41.412Z,91.87
2019-04-21T18:46:25.873Z,91.93
2019-04-21T18:48:50.871Z,91.55
2019-04-21T18:51:42.895Z,91.23
2019-04-21T18:54:27.301Z,90.69
2019-04-21T18:56:51.561Z,90.68
2019-04-21T18:59:14.624Z,90.58
2019-04-21T19:01:53.807Z,90.06
2019-04-21T19:04:25.633Z,89.75
2019-04-21T19:07:07.654Z,89.88
2019-04-21T19:12:35.647Z,90.17
2019-04-21T19:14:56.309Z,89.94
2019-04-21T19:17:58.122Z,89.63
2019-04-21T19:22:38.816Z,89.86
2019-04-21T19:25:25.811Z,89.91
2019-04-21T19:27:53.290Z,90.20
2019-04-21T19:30:30.189Z,90.22
2019-04-21T19:32:51.079Z,90.09
2019-04-21T19:35:11.650Z,89.99
2019-04-21T19:37:49.659Z,89.76
2019-04-21T19:40:38.681Z,90.00
2019-04-21T19:43:02.872Z,89.73
2019-04-21T19:45:36.807Z,89.49
2019-04-21T19:48:12.204Z,89.85
2019-04-21T19:50:51.134Z,89.87
2019-04-21T19:53:21.277Z,90.16
2019-04-21T19:55:38.649Z,90.24
2019-04-21T19:58:10.724Z,90.20
2019-04-21T20:00:42.273Z,89.67
2019-04-21T20:03:16.438Z,89.60
2019-04-21T20:05:57.774Z,89.96
2019-04-21T20:08:36.141Z,90.27
2019-04-21T20:11:14.583Z,90.40
2019-04-21T20:14:32.451Z,90.30
2019-04-21T20:16:28.842Z,90.37
2019-04-21T20:18:46.968Z,90.45
2019-04-21T20:21:14.333Z,90.33
2019-04-21T20:23:46.699Z,89.29
2019-04-21T20:26:23.147Z,89.10
2019-04-21T20:28:59.261Z,89.55
2019-04-21T20:31:43.079Z,89.18
2019-04-21T20:34:17.759Z,88.80
2019-04-21T20:36:56.728Z,88.83
2019-04-21T20:39:13.878Z,88.99
2019-04-21T20:41:52.367Z,88.57
2019-04-21T20:44:29.631Z,88.71
2019-04-21T20:47:02.310Z,88.08
2019-04-21T20:49:31.670Z,88.04
2019-04-21T20:52:18.878Z,88.16
2019-04-21T20:54:41.644Z,88.30
2019-04-21T20:57:19.011Z,88.42
2019-04-21T20:59:44.189Z,88.22
2019-04-21T21:02:20.058Z,88.84
2019-04-21T21:04:46.892Z,89.34
2019-04-21T21:07:43.244Z,89.75
2019-04-21T21:10:04.924Z,89.78
2019-04-21T21:12:43.171Z,89.98
2019-04-21T21:15:00.081Z,89.93
2019-04-21T21:20:21.356Z,90.13
2019-04-21T21:22:49.069Z,89.53
2019-04-21T21:25:25.575Z,89.18
2019-04-21T21:27:51.965Z,88.68
2019-04-21T21:30:28.546Z,87.73
2019-04-21T21:33:02.315Z,87.70
2019-04-21T21:35:31.122Z,87.06
2019-04-21T21:38:08.181Z,87.26
2019-04-21T21:40:36.709Z,87.17
2019-04-21T21:42:57.335Z,86.76
2019-04-21T21:45:38.933Z,86.01
2019-04-21T21:48:18.427Z,86.66
2019-04-21T21:50:45.921Z,87.18
2019-04-21T21:53:14.402Z,88.06
2019-04-21T21:55:42.659Z,88.26
2019-04-21T21:58:19.331Z,88.62
2019-04-21T22:00:53.237Z,88.90
2019-04-21T22:03:28.304Z,88.96
2019-04-21T22:06:05.033Z,89.55
2019-04-21T22:08:30.635Z,89.60
2019-04-21T22:11:03.280Z,89.55
2019-04-21T22:13:43.601Z,89.84
2019-04-21T22:16:12.502Z,90.12
2019-04-21T22:18:59.902Z,90.59
2019-04-21T22:21:34.237Z,90.49
2019-04-21T22:23:57.058Z,90.49
2019-04-21T22:26:20.977Z,90.16
2019-04-21T22:28:53.812Z,89.60
2019-04-21T22:31:29.069Z,89.46
2019-04-21T22:34:03.828Z,89.23
2019-04-21T22:36:44.717Z,89.62
2019-04-21T22:39:19.662Z,89.30
2019-04-21T22:41:41.795Z,89.28
2019-04-21T22:44:18.847Z,88.42
2019-04-21T22:47:03.459Z,87.99
2019-04-21T22:49:24.346Z,86.66
2019-04-21T22:51:56.131Z,86.35
2019-04-21T22:54:34.318Z,85.74
2019-04-21T22:57:11.756Z,85.47
2019-04-21T22:59:35.648Z,86.14
2019-04-21T23:02:16.299Z,85.80
2019-04-21T23:04:46.213Z,86.11
2019-04-21T23:07:17.328Z,85.44
2019-04-21T23:09:47.498Z,85.45
2019-04-21T23:12:25.089Z,84.91
2019-04-21T23:14:58.555Z,85.10
2019-04-21T23:17:46.597Z,85.06
2019-04-21T23:20:19.923Z,85.30
2019-04-21T23:22:58.409Z,85.47
2019-04-21T23:25:25.092Z,85.73
2019-04-21T23:27:56.186Z,86.53
2019-04-21T23:30:39.211Z,87.28
2019-04-21T23:32:56.023Z,87.85
2019-04-21T23:35:25.913Z,89.15
2019-04-21T23:37:57.987Z,89.71
2019-04-21T23:40:27.347Z,90.06
2019-04-21T23:43:00.149Z,90.19
2019-04-21T23:45:36.202Z,89.70
2019-04-21T23:48:18.583Z,89.35
2019-04-21T23:50:45.870Z,89.50
2019-04-21T23:53:09.314Z,89.88
2019-04-21T23:55:41.151Z,90.03
2019-04-21T23:58:18.685Z,90.47
